createdAt,value
2023-04-27T00:02:20.590Z,75.04
2023-04-27T00:04:48.558Z,74.48
2023-04-27T00:07:16.707Z,75.19
2023-04-27T00:09:44.535Z,75.34
2023-04-27T00:12:12.334Z,74.93
2023-04-27T00:14:41.845Z,75.07
2023-04-27T00:17:09.691Z,74.82
2023-04-27T00:19:37.532Z,75.53
2023-04-27T00:22:06.357Z,76.14
2023-04-27T00:24:34.384Z,76.38
2023-04-27T00:27:03.107Z,76.23
2023-04-27T00:29:30.922Z,76.62
2023-04-27T00:32:00.230Z,76.19
2023-04-27T00:34:28.022Z,76.48
2023-04-27T00:36:55.764Z,76.37
2023-04-27T00:39:23.496Z,76.25
2023-04-27T00:41:51.220Z,76.24
2023-04-27T00:44:24.257Z,76.40
2023-04-27T00:46:52.365Z,76.48
2023-04-27T00:49:22.261Z,76.25
2023-04-27T00:51:50.149Z,76.09
2023-04-27T00:54:21.254Z,76.47
2023-04-27T00:56:50.913Z,76.17
2023-04-27T00:59:18.759Z,75.88
2023-04-27T01:01:47.628Z,76.19
2023-04-27T01:04:18.053Z,76.38
2023-04-27T01:06:47.352Z,75.93
2023-04-27T01:09:16.641Z,75.78
2023-04-27T01:11:44.489Z,76.16
2023-04-27T01:14:12.315Z,75.86
2023-04-27T01:16:40.713Z,75.84
2023-04-27T01:19:09.191Z,76.20
2023-04-27T01:21:37.259Z,76.49
2023-04-27T01:24:07.900Z,75.50
2023-04-27T01:26:35.904Z,76.27
2023-04-27T01:29:03.721Z,76.95
2023-04-27T01:31:32.102Z,76.30
2023-04-27T01:33:59.837Z,77.04
2023-04-27T01:36:28.215Z,77.00
2023-04-27T01:38:56.162Z,77.28
2023-04-27T01:41:25.346Z,77.10
2023-04-27T01:43:54.239Z,77.51
2023-04-27T01:46:22.201Z,77.37
2023-04-27T01:48:50.053Z,77.77
2023-04-27T01:51:17.814Z,77.59
2023-04-27T01:53:45.561Z,77.74
2023-04-27T01:56:13.453Z,77.94
2023-04-27T01:58:43.118Z,78.10
2023-04-27T02:01:11.485Z,77.94
2023-04-27T02:03:39.476Z,78.00
2023-04-27T02:06:08.038Z,77.99
2023-04-27T02:08:36.074Z,77.58
2023-04-27T02:11:04.238Z,77.81
2023-04-27T02:13:32.009Z,78.25
2023-04-27T02:16:02.247Z,78.24
2023-04-27T02:18:30.042Z,78.12
2023-04-27T02:20:57.871Z,78.39
2023-04-27T02:23:25.640Z,78.01
2023-04-27T02:25:53.365Z,78.49
2023-04-27T02:28:21.134Z,78.11
2023-04-27T02:30:49.585Z,78.32
2023-04-27T02:33:18.668Z,78.32
2023-04-27T02:35:46.484Z,77.85
2023-04-27T02:38:14.310Z,78.64
2023-04-27T02:40:42.126Z,78.75
2023-04-27T02:43:10.711Z,78.92
2023-04-27T02:45:39.178Z,78.88
2023-04-27T02:48:07.755Z,78.66
2023-04-27T02:50:41.903Z,78.89
2023-04-27T02:53:10.035Z,78.82
2023-04-27T02:55:37.945Z,79.20
2023-04-27T02:58:06.020Z,78.98
2023-04-27T03:00:34.241Z,79.06
2023-04-27T03:03:02.196Z,79.00
2023-04-27T03:05:31.812Z,79.34
2023-04-27T03:08:01.377Z,78.94
2023-04-27T03:10:29.329Z,79.23
2023-04-27T03:12:57.201Z,79.32
2023-04-27T03:15:24.950Z,79.37
2023-04-27T03:17:52.912Z,79.09
2023-04-27T03:20:21.004Z,78.94
2023-04-27T03:22:48.832Z,79.46
2023-04-27T03:25:17.988Z,79.08
2023-04-27T03:27:45.807Z,78.93
2023-04-27T03:30:14.473Z,79.28
2023-04-27T03:32:42.270Z,79.52
2023-04-27T03:35:10.903Z,79.29
2023-04-27T03:37:38.722Z,79.54
2023-04-27T03:40:08.290Z,79.38
2023-04-27T03:42:37.456Z,79.58
2023-04-27T03:45:06.658Z,79.77
2023-04-27T03:47:34.495Z,79.54
2023-04-27T03:50:02.279Z,79.82
2023-04-27T03:52:30.062Z,79.69
2023-04-27T03:54:57.799Z,79.70
2023-04-27T03:57:25.571Z,79.93
2023-04-27T03:59:54.715Z,79.86
2023-04-27T04:02:23.522Z,79.81
2023-04-27T04:04:51.841Z,79.73
2023-04-27T04:07:19.899Z,79.62
2023-04-27T04:09:47.625Z,79.87
2023-04-27T04:12:15.543Z,79.73
2023-04-27T04:14:43.711Z,79.88
2023-04-27T04:17:12.877Z,79.61
2023-04-27T04:19:40.782Z,79.93
2023-04-27T04:22:08.688Z,80.08
2023-04-27T04:24:37.639Z,80.02
2023-04-27T04:27:05.480Z,80.02
2023-04-27T04:29:33.834Z,80.08
2023-04-27T04:32:01.680Z,80.19
2023-04-27T04:34:31.248Z,80.17
2023-04-27T04:36:59.011Z,79.88
2023-04-27T04:39:27.028Z,80.03
2023-04-27T04:41:54.793Z,80.29
2023-04-27T04:44:22.622Z,80.58
2023-04-27T04:46:51.212Z,80.31
2023-04-27T04:49:19.142Z,80.66
2023-04-27T04:51:48.356Z,80.76
2023-04-27T04:54:16.363Z,80.72
2023-04-27T04:56:44.118Z,80.68
2023-04-27T04:59:12.416Z,80.45
2023-04-27T05:01:40.400Z,80.90
2023-04-27T05:04:08.270Z,81.29
2023-04-27T05:06:36.187Z,81.42
2023-04-27T05:09:06.391Z,81.03
2023-04-27T05:11:34.219Z,81.64
2023-04-27T05:14:01.932Z,81.83
2023-04-27T05:16:29.677Z,81.56
2023-04-27T05:18:58.210Z,81.97
2023-04-27T05:21:25.940Z,82.04
2023-04-27T05:23:53.888Z,81.83
2023-04-27T05:26:23.019Z,82.10
2023-04-27T05:28:50.907Z,82.21
2023-04-27T05:31:18.792Z,82.08
2023-04-27T05:33:46.650Z,82.16
2023-04-27T05:36:14.361Z,82.40
2023-04-27T05:38:42.933Z,82.49
2023-04-27T05:41:10.700Z,82.43
2023-04-27T05:43:39.845Z,82.18
2023-04-27T05:46:07.842Z,82.58
2023-04-27T05:48:36.027Z,82.78
2023-04-27T05:51:04.857Z,82.41
2023-04-27T05:53:34.274Z,82.69
2023-04-27T05:56:04.363Z,82.70
2023-04-27T05:58:32.456Z,83.02
2023-04-27T06:01:03.034Z,82.90
2023-04-27T06:03:31.324Z,82.96
2023-04-27T06:06:00.852Z,83.03
2023-04-27T06:08:29.701Z,83.39
2023-04-27T06:10:57.621Z,83.13
2023-04-27T06:13:25.410Z,82.76
2023-04-27T06:15:53.384Z,82.57
2023-04-27T06:18:22.549Z,82.33
2023-04-27T06:20:50.917Z,81.91
2023-04-27T06:23:18.758Z,81.73
2023-04-27T06:25:46.536Z,81.40
2023-04-27T06:28:14.414Z,81.92
2023-04-27T06:30:42.146Z,81.13
2023-04-27T06:33:10.527Z,80.91
2023-04-27T06:35:39.718Z,80.40
2023-04-27T06:38:08.057Z,80.15
2023-04-27T06:40:37.234Z,79.07
2023-04-27T06:43:05.134Z,78.71
2023-04-27T06:45:32.873Z,77.52
2023-04-27T06:48:00.933Z,77.01
2023-04-27T06:50:29.275Z,76.42
2023-04-27T06:52:58.507Z,74.83
2023-04-27T06:55:26.553Z,73.88
2023-04-27T06:57:54.477Z,72.67
2023-04-27T07:00:23.308Z,72.46
2023-04-27T07:02:51.524Z,72.31
2023-04-27T07:05:19.582Z,73.35
2023-04-27T07:07:47.708Z,72.52
2023-04-27T07:10:16.992Z,71.37
2023-04-27T07:12:45.103Z,69.53
2023-04-27T07:15:12.946Z,68.86
2023-04-27T07:17:41.471Z,67.79
2023-04-27T07:20:10.139Z,67.49
2023-04-27T07:22:37.887Z,64.98
2023-04-27T07:25:06.572Z,63.80
2023-04-27T07:27:36.267Z,64.32
2023-04-27T07:30:04.694Z,64.63
2023-04-27T07:32:32.691Z,64.06
2023-04-27T07:35:00.912Z,64.71
2023-04-27T07:37:28.981Z,64.59
2023-04-27T07:39:57.768Z,64.07
2023-04-27T07:42:26.033Z,63.52
2023-04-27T07:44:55.226Z,62.30
2023-04-27T07:47:23.010Z,61.19
2023-04-27T07:49:53.046Z,62.11
2023-04-27T07:52:20.977Z,61.41
2023-04-27T07:54:48.805Z,61.93
2023-04-27T07:57:16.702Z,61.79
2023-04-27T07:59:44.855Z,62.19
2023-04-27T08:02:19.593Z,61.59
2023-04-27T08:04:54.218Z,61.51
2023-04-27T08:07:22.601Z,61.80
2023-04-27T08:09:52.273Z,61.90
2023-04-27T08:12:20.442Z,61.09
2023-04-27T08:14:48.346Z,61.24
2023-04-27T08:17:18.565Z,60.32
2023-04-27T08:19:46.675Z,60.21
2023-04-27T08:22:14.901Z,58.60
2023-04-27T08:24:43.307Z,57.51
2023-04-27T08:27:11.154Z,55.42
2023-04-27T08:29:39.062Z,57.08
2023-04-27T08:32:07.237Z,57.48
2023-04-27T08:34:36.524Z,57.02
2023-04-27T08:37:04.568Z,56.66
2023-04-27T08:39:32.762Z,55.75
2023-04-27T08:42:00.730Z,54.71
2023-04-27T08:44:28.729Z,54.30
2023-04-27T08:46:56.845Z,54.78
2023-04-27T08:49:24.626Z,53.15
2023-04-27T08:51:53.817Z,54.17
2023-04-27T08:54:22.069Z,53.89
2023-04-27T08:56:49.954Z,54.09
2023-04-27T08:59:18.102Z,52.64
2023-04-27T09:01:48.634Z,52.56
2023-04-27T09:04:17.914Z,51.24
2023-04-27T09:06:46.235Z,51.33
2023-04-27T09:09:25.248Z,51.34
2023-04-27T09:11:53.509Z,51.98
2023-04-27T09:14:22.853Z,51.32
2023-04-27T09:16:57.478Z,51.40
2023-04-27T09:19:26.473Z,50.90
2023-04-27T09:22:05.715Z,50.73
2023-04-27T09:24:35.283Z,49.61
2023-04-27T09:27:05.227Z,50.26
2023-04-27T09:29:37.352Z,49.77
2023-04-27T09:32:17.568Z,49.02
2023-04-27T09:34:46.125Z,48.82
2023-04-27T09:37:14.387Z,48.92
2023-04-27T09:39:44.617Z,48.65
2023-04-27T09:42:14.314Z,48.93
2023-04-27T09:44:42.193Z,46.96
2023-04-27T09:47:11.786Z,46.44
2023-04-27T09:49:39.561Z,45.70
2023-04-27T09:52:07.521Z,46.93
2023-04-27T09:54:36.974Z,47.13
2023-04-27T09:57:19.764Z,45.82
2023-04-27T10:00:08.039Z,46.46
2023-04-27T10:05:48.775Z,45.46
2023-04-27T10:08:16.992Z,45.55
2023-04-27T10:10:48.047Z,45.44
2023-04-27T10:13:24.598Z,43.07
2023-04-27T10:15:52.591Z,42.43
2023-04-27T10:18:28.902Z,42.44
2023-04-27T10:20:56.823Z,42.73
2023-04-27T10:23:25.870Z,41.44
2023-04-27T10:25:54.914Z,42.78
2023-04-27T10:28:24.316Z,40.38
2023-04-27T10:30:52.231Z,41.72
2023-04-27T10:33:24.230Z,41.43
2023-04-27T10:35:56.650Z,39.56
2023-04-27T10:38:31.324Z,40.34
2023-04-27T10:41:01.973Z,40.53
2023-04-27T10:43:34.275Z,40.53
2023-04-27T10:46:12.847Z,41.35
2023-04-27T10:48:41.131Z,40.62
2023-04-27T10:51:09.054Z,38.65
2023-04-27T10:53:37.366Z,38.88
2023-04-27T10:56:07.468Z,37.92
2023-04-27T10:58:48.966Z,36.03
2023-04-27T11:01:26.012Z,37.20
2023-04-27T11:03:57.173Z,36.39
2023-04-27T11:06:25.042Z,36.34
2023-04-27T11:08:53.216Z,37.38
2023-04-27T11:11:22.558Z,37.63
2023-04-27T11:13:52.984Z,36.97
2023-04-27T11:16:21.122Z,36.65
2023-04-27T11:18:51.468Z,37.75
2023-04-27T11:21:22.060Z,38.67
2023-04-27T11:23:49.950Z,37.94
2023-04-27T11:26:19.617Z,37.00
2023-04-27T11:29:00.976Z,37.01
2023-04-27T11:31:29.769Z,37.40
2023-04-27T11:33:57.947Z,37.47
2023-04-27T11:36:27.623Z,36.92
2023-04-27T11:38:59.938Z,36.88
2023-04-27T11:41:35.061Z,35.48
2023-04-27T11:44:08.636Z,34.61
2023-04-27T11:46:37.839Z,35.12
2023-04-27T11:49:08.729Z,34.30
2023-04-27T11:51:37.635Z,34.89
2023-04-27T11:54:07.535Z,35.38
2023-04-27T11:56:36.648Z,35.71
2023-04-27T11:59:04.994Z,33.56
2023-04-27T12:01:38.018Z,34.49
2023-04-27T12:04:07.077Z,34.57
2023-04-27T12:06:35.118Z,32.97
2023-04-27T12:09:04.360Z,32.47
2023-04-27T12:11:32.444Z,33.57
2023-04-27T12:14:00.294Z,32.54
2023-04-27T12:16:28.740Z,33.78
2023-04-27T12:18:58.031Z,34.10
2023-04-27T12:21:26.179Z,34.92
2023-04-27T12:23:54.484Z,33.87
2023-04-27T12:26:22.379Z,34.35
2023-04-27T12:28:50.212Z,33.29
2023-04-27T12:31:23.236Z,34.25
2023-04-27T12:33:52.754Z,34.07
2023-04-27T12:36:22.060Z,32.75
2023-04-27T12:38:50.310Z,32.61
2023-04-27T12:41:18.680Z,33.34
2023-04-27T12:43:49.009Z,33.22
2023-04-27T12:46:18.314Z,32.36
2023-04-27T12:48:46.368Z,32.76
2023-04-27T12:51:14.938Z,33.24
2023-04-27T12:53:44.389Z,32.40
2023-04-27T12:56:12.548Z,33.15
2023-04-27T12:58:41.704Z,32.92
2023-04-27T13:01:15.144Z,33.43
2023-04-27T13:03:43.363Z,33.38
2023-04-27T13:06:12.679Z,32.84
2023-04-27T13:08:43.973Z,33.70
2023-04-27T13:11:13.290Z,33.82
2023-04-27T13:13:41.420Z,34.43
2023-04-27T13:16:10.157Z,34.42
2023-04-27T13:18:38.080Z,33.67
2023-04-27T13:21:07.009Z,32.82
2023-04-27T13:23:34.880Z,32.69
2023-04-27T13:26:02.791Z,32.33
2023-04-27T13:28:31.965Z,33.78
2023-04-27T13:31:00.533Z,33.10
2023-04-27T13:33:28.876Z,33.83
2023-04-27T13:35:56.730Z,33.00
2023-04-27T13:38:24.505Z,32.99
2023-04-27T13:40:52.406Z,33.27
2023-04-27T13:43:20.286Z,33.74
2023-04-27T13:45:52.448Z,33.36
2023-04-27T13:48:20.679Z,32.43
2023-04-27T13:50:48.722Z,33.42
2023-04-27T13:53:17.018Z,32.52
2023-04-27T13:55:45.201Z,32.74
2023-04-27T13:58:13.374Z,32.89
2023-04-27T14:00:41.620Z,33.33
2023-04-27T14:03:10.944Z,33.53
2023-04-27T14:05:40.958Z,33.55
2023-04-27T14:08:08.896Z,33.26
2023-04-27T14:10:37.562Z,33.79
2023-04-27T14:13:05.541Z,33.52
2023-04-27T14:15:37.113Z,34.39
2023-04-27T14:18:06.419Z,34.19
2023-04-27T14:20:36.025Z,34.88
2023-04-27T14:23:05.011Z,35.18
2023-04-27T14:25:34.574Z,34.39
2023-04-27T14:28:04.089Z,35.02
2023-04-27T14:30:32.982Z,34.76
2023-04-27T14:33:00.836Z,35.00
2023-04-27T14:35:29.358Z,34.96
2023-04-27T14:38:02.493Z,34.69
2023-04-27T14:40:30.991Z,35.30
2023-04-27T14:42:59.604Z,35.63
2023-04-27T14:45:36.741Z,35.70
2023-04-27T14:48:11.884Z,35.02
2023-04-27T14:50:39.996Z,35.20
2023-04-27T14:53:09.150Z,34.58
2023-04-27T14:55:37.182Z,34.95
2023-04-27T14:58:05.031Z,35.00
2023-04-27T15:00:32.969Z,35.25
2023-04-27T15:03:01.144Z,35.61
2023-04-27T15:05:29.225Z,35.71
2023-04-27T15:07:57.141Z,36.27
2023-04-27T15:10:26.345Z,35.99
2023-04-27T15:12:54.440Z,35.03
2023-04-27T15:15:22.484Z,35.32
2023-04-27T15:17:50.635Z,35.72
2023-04-27T15:20:18.862Z,35.74
2023-04-27T15:22:47.200Z,35.46
2023-04-27T15:25:15.026Z,35.03
2023-04-27T15:27:44.892Z,35.04
2023-04-27T15:30:13.498Z,34.46
2023-04-27T15:32:41.862Z,35.50
2023-04-27T15:35:10.310Z,34.75
2023-04-27T15:37:38.375Z,34.49
2023-04-27T15:40:08.116Z,34.95
2023-04-27T15:42:36.301Z,34.41
2023-04-27T15:45:08.008Z,34.24
2023-04-27T15:47:37.350Z,34.79
2023-04-27T15:50:06.111Z,34.35
2023-04-27T15:52:33.993Z,34.79
2023-04-27T15:55:04.208Z,34.21
2023-04-27T15:57:32.113Z,34.20
2023-04-27T16:00:00.166Z,34.73
2023-04-27T16:02:29.414Z,34.35
2023-04-27T16:04:57.392Z,34.50
2023-04-27T16:07:25.324Z,34.92
2023-04-27T16:09:53.266Z,34.94
2023-04-27T16:12:21.549Z,33.58
2023-04-27T16:14:52.028Z,34.07
2023-04-27T16:17:20.291Z,34.02
2023-04-27T16:19:49.714Z,34.49
2023-04-27T16:22:17.968Z,34.76
2023-04-27T16:24:45.928Z,34.08
2023-04-27T16:27:13.877Z,34.17
2023-04-27T16:29:42.245Z,34.89
2023-04-27T16:32:11.031Z,35.27
2023-04-27T16:34:39.147Z,35.68
2023-04-27T16:37:08.784Z,35.83
2023-04-27T16:39:36.962Z,36.05
2023-04-27T16:42:05.376Z,36.07
2023-04-27T16:44:33.424Z,35.88
2023-04-27T16:47:01.550Z,34.81
2023-04-27T16:49:29.646Z,35.35
2023-04-27T16:51:57.626Z,35.59
2023-04-27T16:54:27.045Z,35.40
2023-04-27T16:56:55.428Z,36.11
2023-04-27T16:59:23.777Z,35.77
2023-04-27T17:01:51.992Z,36.16
2023-04-27T17:04:20.857Z,35.90
2023-04-27T17:06:49.203Z,35.77
2023-04-27T17:09:17.534Z,36.01
2023-04-27T17:11:47.127Z,35.76
2023-04-27T17:14:15.244Z,36.16
2023-04-27T17:16:43.277Z,35.74
2023-04-27T17:19:12.120Z,36.14
2023-04-27T17:21:40.216Z,36.17
2023-04-27T17:24:09.732Z,36.35
2023-04-27T17:26:39.124Z,36.04
2023-04-27T17:29:08.370Z,36.93
2023-04-27T17:31:36.380Z,37.05
2023-04-27T17:34:04.385Z,37.06
2023-04-27T17:36:32.925Z,37.54
2023-04-27T17:39:01.600Z,37.81
2023-04-27T17:41:29.912Z,38.00
2023-04-27T17:43:59.050Z,38.07
2023-04-27T17:46:28.347Z,37.67
2023-04-27T17:48:56.341Z,37.85
2023-04-27T17:51:24.346Z,37.81
2023-04-27T17:53:52.482Z,38.42
2023-04-27T17:56:20.352Z,38.88
2023-04-27T17:58:48.553Z,38.52
2023-04-27T18:01:16.813Z,38.90
2023-04-27T18:03:46.436Z,38.70
2023-04-27T18:06:14.859Z,39.03
2023-04-27T18:08:43.097Z,38.92
2023-04-27T18:11:11.245Z,39.42
2023-04-27T18:13:39.115Z,39.30
2023-04-27T18:16:07.449Z,39.60
2023-04-27T18:18:35.471Z,39.90
2023-04-27T18:21:06.581Z,40.27
2023-04-27T18:23:36.331Z,40.46
2023-04-27T18:26:04.351Z,40.54
2023-04-27T18:28:32.250Z,41.00
2023-04-27T18:31:00.236Z,40.68
2023-04-27T18:33:28.508Z,40.92
2023-04-27T18:35:56.393Z,40.84
2023-04-27T18:38:26.234Z,41.34
2023-04-27T18:40:54.062Z,41.29
2023-04-27T18:43:22.454Z,41.64
2023-04-27T18:45:51.782Z,41.34
2023-04-27T18:48:20.257Z,41.27
2023-04-27T18:50:49.597Z,41.66
2023-04-27T18:53:17.434Z,42.26
2023-04-27T18:55:47.071Z,41.77
2023-04-27T18:58:14.961Z,42.67
2023-04-27T19:00:44.704Z,42.60
2023-04-27T19:03:12.706Z,43.16
2023-04-27T19:05:43.154Z,42.87
2023-04-27T19:08:11.559Z,43.02
2023-04-27T19:10:41.434Z,43.14
2023-04-27T19:13:10.894Z,42.89
2023-04-27T19:15:38.960Z,42.86
2023-04-27T19:18:10.964Z,43.07
2023-04-27T19:20:39.588Z,43.63
2023-04-27T19:23:09.726Z,43.48
2023-04-27T19:25:37.624Z,43.58
2023-04-27T19:28:05.936Z,43.82
2023-04-27T19:30:35.368Z,43.84
2023-04-27T19:33:04.429Z,43.81
2023-04-27T19:35:32.363Z,43.99
2023-04-27T19:38:00.219Z,43.83
2023-04-27T19:40:28.000Z,44.01
2023-04-27T19:42:55.937Z,44.52
2023-04-27T19:45:23.942Z,44.54
2023-04-27T19:47:54.284Z,44.56
2023-04-27T19:50:22.219Z,44.27
2023-04-27T19:52:50.152Z,44.72
2023-04-27T19:55:18.015Z,44.97
2023-04-27T19:57:45.848Z,45.40
2023-04-27T20:00:14.951Z,45.55
2023-04-27T20:02:46.344Z,45.84
2023-04-27T20:05:16.236Z,46.06
2023-04-27T20:07:44.364Z,46.19
2023-04-27T20:10:12.184Z,46.34
2023-04-27T20:12:55.432Z,46.13
2023-04-27T20:15:25.236Z,46.44
2023-04-27T20:17:53.297Z,46.43
2023-04-27T20:20:22.886Z,46.26
2023-04-27T20:22:50.801Z,46.25
2023-04-27T20:25:19.675Z,46.55
2023-04-27T20:27:48.172Z,46.82
2023-04-27T20:30:16.417Z,46.38
2023-04-27T20:32:45.154Z,46.55
2023-04-27T20:35:12.995Z,46.66
2023-04-27T20:37:43.693Z,46.36
2023-04-27T20:40:14.577Z,46.44
2023-04-27T20:42:43.609Z,46.40
2023-04-27T20:45:12.341Z,46.53
2023-04-27T20:47:40.212Z,46.64
2023-04-27T20:50:09.368Z,46.79
2023-04-27T20:52:37.186Z,46.86
2023-04-27T20:55:07.481Z,47.31
2023-04-27T20:57:35.272Z,47.21
2023-04-27T21:00:04.011Z,47.20
2023-04-27T21:02:31.877Z,47.54
2023-04-27T21:04:59.849Z,47.50
2023-04-27T21:07:27.744Z,47.77
2023-04-27T21:09:55.806Z,47.93
2023-04-27T21:12:24.965Z,48.26
2023-04-27T21:14:52.731Z,48.42
2023-04-27T21:17:20.612Z,48.32
2023-04-27T21:19:48.446Z,48.29
2023-04-27T21:22:16.274Z,48.53
2023-04-27T21:24:44.141Z,48.64
2023-04-27T21:27:12.098Z,48.23
2023-04-27T21:29:41.623Z,48.20
2023-04-27T21:32:09.555Z,48.31
2023-04-27T21:34:37.350Z,48.27
2023-04-27T21:37:05.168Z,48.41
2023-04-27T21:39:32.957Z,48.37
2023-04-27T21:42:00.914Z,48.66
2023-04-27T21:44:28.687Z,49.02
2023-04-27T21:46:58.004Z,48.96
2023-04-27T21:49:26.355Z,48.84
2023-04-27T21:51:54.233Z,49.18
2023-04-27T21:54:22.146Z,49.31
2023-04-27T21:56:49.889Z,49.60
2023-04-27T21:59:17.711Z,49.11
2023-04-27T22:01:45.540Z,49.18
2023-04-27T22:04:15.078Z,49.22
2023-04-27T22:06:43.449Z,49.34
2023-04-27T22:09:12.227Z,49.21
2023-04-27T22:11:40.242Z,49.45
2023-04-27T22:14:08.406Z,49.51
2023-04-27T22:16:36.838Z,49.71
2023-04-27T22:19:04.897Z,49.89
2023-04-27T22:21:33.969Z,49.90
2023-04-27T22:24:01.746Z,50.00
2023-04-27T22:26:29.545Z,50.44
2023-04-27T22:28:57.361Z,50.37
2023-04-27T22:31:25.900Z,50.48
2023-04-27T22:33:53.745Z,50.62
2023-04-27T22:36:21.576Z,50.82
2023-04-27T22:38:51.224Z,50.66
2023-04-27T22:41:19.296Z,50.84
2023-04-27T22:43:47.016Z,50.97
2023-04-27T22:46:14.817Z,50.73
2023-04-27T22:48:45.179Z,50.89
2023-04-27T22:51:12.971Z,50.48
2023-04-27T22:53:40.767Z,50.63
2023-04-27T22:56:10.286Z,50.90
2023-04-27T22:58:38.192Z,50.65
2023-04-27T23:01:06.228Z,50.69
2023-04-27T23:03:34.278Z,51.08
2023-04-27T23:06:02.179Z,50.72
2023-04-27T23:08:30.101Z,51.13
2023-04-27T23:10:57.990Z,51.34
2023-04-27T23:13:27.778Z,51.41
2023-04-27T23:15:55.889Z,51.42
2023-04-27T23:18:23.758Z,51.46
2023-04-27T23:20:54.552Z,51.83
2023-04-27T23:23:22.436Z,51.87
2023-04-27T23:25:50.288Z,51.88
2023-04-27T23:28:18.202Z,51.84
2023-04-27T23:30:53.829Z,51.90
2023-04-27T23:33:22.316Z,52.27
2023-04-27T23:35:50.132Z,52.13
2023-04-27T23:38:18.315Z,52.08
2023-04-27T23:40:46.293Z,52.31
2023-04-27T23:43:14.099Z,52.07
2023-04-27T23:45:41.919Z,52.68
2023-04-27T23:48:11.104Z,52.85
2023-04-27T23:50:38.975Z,52.41
2023-04-27T23:53:06.734Z,52.88
2023-04-27T23:55:35.589Z,53.44
2023-04-27T23:58:03.704Z,54.15
